Time;durP1;ratioP1;P1;durP2;ratioP2;P2;SDS_P1;SDS_P2;PMS_P1;PMS_P2;Temp;Humidity;BMP_temperature;BMP_pressure;BME280_temperature;BME280_humidity;BME280_pressure;Samples;Min_cycle;Max_cycle;Signal;HPM_P1;HPM_P2
2022/10/21 00:00:08;;;;;;;47.57;7.50;;;;;;;;;;5018491;28;20284;-67
2022/10/21 00:02:33;;;;;;;29.85;14.70;;;;;;;;;;5012999;28;20324;-67
2022/10/21 00:04:58;;;;;;;30.00;13.77;;;;;;;;;;5013770;28;20039;-67
2022/10/21 00:07:23;;;;;;;33.07;14.90;;;;;;;;;;5010112;28;20288;-66
2022/10/21 00:09:49;;;;;;;25.15;11.88;;;;;;;;;;5019080;28;20354;-66
2022/10/21 00:12:14;;;;;;;17.30;9.07;;;;;;;;;;5010526;28;20061;-66
2022/10/21 00:14:39;;;;;;;19.43;10.03;;;;;;;;;;5013591;28;20268;-66
2022/10/21 00:17:04;;;;;;;20.37;9.37;;;;;;;;;;5012102;28;20280;-66
2022/10/21 00:19:29;;;;;;;35.03;12.20;;;;;;;;;;5012845;28;20976;-66
2022/10/21 00:21:54;;;;;;;9.10;5.20;;;;;;;;;;5012906;28;20281;-66
2022/10/21 00:24:20;;;;;;;26.77;11.53;;;;;;;;;;5012489;28;20280;-66
2022/10/21 00:26:45;;;;;;;23.10;11.77;;;;;;;;;;5009025;28;20380;-66
2022/10/21 00:29:10;;;;;;;25.57;11.03;;;;;;;;;;5017920;28;20029;-66
2022/10/21 00:31:35;;;;;;;23.00;12.20;;;;;;;;;;5011552;28;20272;-66
2022/10/21 00:34:00;;;;;;;24.08;11.70;;;;;;;;;;5010033;28;20022;-66
2022/10/21 00:36:26;;;;;;;21.73;11.00;;;;;;;;;;5011425;28;20022;-67
2022/10/21 00:38:51;;;;;;;23.02;11.57;;;;;;;;;;5013909;28;20811;-66
2022/10/21 00:41:17;;;;;;;18.95;9.00;;;;;;;;;;5011094;28;20073;-66
2022/10/21 00:43:56;;;;;;;31.33;10.93;;;;;;;;;;5011802;28;20018;-67
2022/10/21 00:46:26;;;;;;;21.77;11.77;;;;;;;;;;5011539;28;20482;-66
2022/10/21 00:48:51;;;;;;;;;;;;;;;;;;5015475;28;20026;-67
2022/10/21 00:51:17;;;;;;;26.67;12.40;;;;;;;;;;5014334;28;19916;-66
2022/10/21 00:53:44;;;;;;;35.53;10.73;;;;;;;;;;5012473;28;20022;-67
2022/10/21 00:56:19;;;;;;;21.67;12.60;;;;;;;;;;5010493;28;20049;-66
2022/10/21 00:58:46;;;;;;;23.08;10.45;;;;;;;;;;5012633;28;20049;-66
2022/10/21 01:01:11;;;;;;;20.15;11.40;;;;;;;;;;5011454;28;20038;-66
2022/10/21 01:03:36;;;;;;;17.97;10.57;;;;;;;;;;5011585;28;20112;-66
2022/10/21 01:06:03;;;;;;;21.93;11.77;;;;;;;;;;5011371;28;20621;-66
2022/10/21 01:08:28;;;;;;;23.27;11.73;;;;;;;;;;5017162;28;20724;-67
2022/10/21 01:10:54;;;;;;;25.25;11.38;;;;;;;;;;5016175;28;20057;-66
2022/10/21 01:13:29;;;;;;;28.70;10.57;;;;;;;;;;5011490;28;20029;-66
2022/10/21 01:15:55;;;;;;;19.17;9.98;;;;;;;;;;5011219;28;20018;-67
2022/10/21 01:18:25;;;;;;;20.33;9.40;;;;;;;;;;5011613;28;20080;-66
2022/10/21 01:20:56;;;;;;;18.05;9.50;;;;;;;;;;5010383;28;20026;-66
2022/10/21 01:23:40;;;;;;;22.85;10.13;;;;;;;;;;5011228;28;20030;-66
2022/10/21 01:26:24;;;;;;;17.23;8.90;;;;;;;;;;5005864;28;20029;-67
2022/10/21 01:28:49;;;;;;;17.95;9.68;;;;;;;;;;5010556;28;20439;-67
2022/10/21 01:31:19;;;;;;;23.98;10.10;;;;;;;;;;5009182;28;20057;-66
2022/10/21 01:33:49;;;;;;;26.93;9.27;;;;;;;;;;5013284;28;20459;-66
2022/10/21 01:36:27;;;;;;;19.65;9.45;;;;;;;;;;5013990;28;20037;-66
2022/10/21 01:38:59;;;;;;;17.85;9.18;;;;;;;;;;5012041;28;20018;-66
2022/10/21 01:41:24;;;;;;;15.00;7.90;;;;;;;;;;5011050;28;20026;-67
2022/10/21 01:43:49;;;;;;;21.60;8.43;;;;;;;;;;5014082;28;20028;-67
2022/10/21 01:46:18;;;;;;;17.52;7.68;;;;;;;;;;5008883;28;20121;-66
2022/10/21 01:48:47;;;;;;;13.95;7.95;;;;;;;;;;5011648;28;20014;-66
2022/10/21 01:51:13;;;;;;;13.15;6.18;;;;;;;;;;5009452;28;20054;-67
2022/10/21 01:53:42;;;;;;;13.15;6.22;;;;;;;;;;5010225;28;20018;-66
2022/10/21 01:56:08;;;;;;;19.65;6.00;;;;;;;;;;5012047;28;20497;-66
2022/10/21 01:58:34;;;;;;;11.55;5.53;;;;;;;;;;5010790;28;20038;-66
2022/10/21 02:01:00;;;;;;;12.25;5.95;;;;;;;;;;5009840;28;20360;-67
2022/10/21 02:03:28;;;;;;;9.20;4.68;;;;;;;;;;5009544;28;20022;-66
2022/10/21 02:05:53;;;;;;;6.70;3.83;;;;;;;;;;5013247;28;20478;-67
2022/10/21 02:08:19;;;;;;;13.57;6.35;;;;;;;;;;5010616;28;20084;-66
2022/10/21 02:10:46;;;;;;;17.92;6.88;;;;;;;;;;5008969;28;20026;-66
2022/10/21 02:13:13;;;;;;;16.52;5.88;;;;;;;;;;5010123;28;20050;-66
2022/10/21 02:15:39;;;;;;;13.95;5.93;;;;;;;;;;5013779;28;20451;-66
2022/10/21 02:18:06;;;;;;;16.73;6.20;;;;;;;;;;5010072;28;20054;-66
2022/10/21 02:20:35;;;;;;;15.65;6.50;;;;;;;;;;5009878;28;20030;-67
2022/10/21 02:23:01;;;;;;;7.82;4.00;;;;;;;;;;5010387;28;20021;-66
2022/10/21 02:25:28;;;;;;;12.07;3.90;;;;;;;;;;5012534;28;20494;-66
2022/10/21 02:27:53;;;;;;;15.95;6.85;;;;;;;;;;5010597;28;20021;-66
2022/10/21 02:30:19;;;;;;;20.38;6.95;;;;;;;;;;5009687;28;20030;-66
2022/10/21 02:33:01;;;;;;;16.52;5.88;;;;;;;;;;5010950;28;20022;-66
2022/10/21 02:35:26;;;;;;;14.10;6.30;;;;;;;;;;5010382;28;20203;-66
2022/10/21 02:38:11;;;;;;;20.30;6.45;;;;;;;;;;5015814;28;20099;-66
2022/10/21 02:40:38;;;;;;;10.98;5.70;;;;;;;;;;5009264;28;20360;-66
2022/10/21 02:43:08;;;;;;;13.38;6.13;;;;;;;;;;5009667;28;20117;-66
2022/10/21 02:45:34;;;;;;;10.05;4.68;;;;;;;;;;5008396;28;20018;-66
2022/10/21 02:47:59;;;;;;;8.05;3.85;;;;;;;;;;5009424;28;20033;-66
2022/10/21 02:50:24;;;;;;;10.15;5.45;;;;;;;;;;5009133;28;20473;-66
2022/10/21 02:52:49;;;;;;;9.50;3.53;;;;;;;;;;5010658;28;20014;-66
2022/10/21 02:55:15;;;;;;;12.38;5.80;;;;;;;;;;5009766;28;20364;-66
2022/10/21 02:57:40;;;;;;;9.40;3.35;;;;;;;;;;5015494;28;20282;-66
2022/10/21 03:00:05;;;;;;;8.77;3.93;;;;;;;;;;5007876;28;20025;-66
2022/10/21 03:02:30;;;;;;;13.57;5.40;;;;;;;;;;5010603;28;20475;-67
2022/10/21 03:04:56;;;;;;;9.05;4.50;;;;;;;;;;5010126;28;20120;-67
2022/10/21 03:07:21;;;;;;;12.90;6.47;;;;;;;;;;5010356;28;20028;-67
2022/10/21 03:09:46;;;;;;;16.80;5.87;;;;;;;;;;5008982;28;20356;-67
2022/10/21 03:12:11;;;;;;;16.67;7.43;;;;;;;;;;5010369;28;20264;-67
2022/10/21 03:14:36;;;;;;;12.60;6.93;;;;;;;;;;5009821;28;20318;-67
2022/10/21 03:17:01;;;;;;;16.73;5.97;;;;;;;;;;5009559;28;20068;-68
2022/10/21 03:19:27;;;;;;;17.43;5.80;;;;;;;;;;5008947;28;20343;-67
2022/10/21 03:21:52;;;;;;;12.45;5.68;;;;;;;;;;5010257;28;20260;-67
2022/10/21 03:24:17;;;;;;;14.27;5.80;;;;;;;;;;5008500;28;20093;-67
2022/10/21 03:26:43;;;;;;;18.00;5.70;;;;;;;;;;5009653;28;20283;-67
2022/10/21 03:29:08;;;;;;;15.77;6.80;;;;;;;;;;5008800;28;20022;-67
2022/10/21 03:31:33;;;;;;;16.07;5.23;;;;;;;;;;5010302;28;20885;-67
2022/10/21 03:33:58;;;;;;;12.80;5.47;;;;;;;;;;5010369;28;20265;-68
2022/10/21 03:36:23;;;;;;;17.60;5.30;;;;;;;;;;5011804;28;20022;-67
2022/10/21 03:38:49;;;;;;;16.60;5.33;;;;;;;;;;5008954;28;20277;-68
2022/10/21 03:41:14;;;;;;;9.45;4.97;;;;;;;;;;5009248;28;20672;-67
2022/10/21 03:43:39;;;;;;;24.17;4.50;;;;;;;;;;5006474;28;20030;-67
2022/10/21 03:46:04;;;;;;;11.37;5.07;;;;;;;;;;5008447;28;20364;-67
2022/10/21 03:48:29;;;;;;;11.13;6.23;;;;;;;;;;5008573;28;20293;-67
2022/10/21 03:50:55;;;;;;;9.33;4.47;;;;;;;;;;5008965;28;20272;-67
2022/10/21 03:53:20;;;;;;;12.35;4.65;;;;;;;;;;5008706;28;20846;-67
2022/10/21 03:55:45;;;;;;;15.50;4.78;;;;;;;;;;5007386;28;20025;-67
2022/10/21 03:58:11;;;;;;;12.02;4.13;;;;;;;;;;5008712;28;20018;-67
2022/10/21 04:00:36;;;;;;;13.80;4.57;;;;;;;;;;5009047;28;20022;-67
2022/10/21 04:03:01;;;;;;;13.83;5.10;;;;;;;;;;5007997;28;20324;-67
2022/10/21 04:05:26;;;;;;;12.80;4.50;;;;;;;;;;5007920;28;20269;-66
2022/10/21 04:07:51;;;;;;;19.30;4.38;;;;;;;;;;5009356;28;20290;-68
2022/10/21 04:10:16;;;;;;;12.53;4.70;;;;;;;;;;5013535;28;20364;-67
2022/10/21 04:12:42;;;;;;;8.75;4.60;;;;;;;;;;5012050;28;20272;-67
2022/10/21 04:15:07;;;;;;;19.00;4.77;;;;;;;;;;5013335;28;20026;-67
2022/10/21 04:17:32;;;;;;;5.05;3.25;;;;;;;;;;5010666;28;20070;-67
2022/10/21 04:19:58;;;;;;;17.23;4.35;;;;;;;;;;5018521;28;20018;-67
2022/10/21 04:22:23;;;;;;;14.85;4.20;;;;;;;;;;5013955;28;20491;-67
2022/10/21 04:24:48;;;;;;;9.50;4.22;;;;;;;;;;5011913;28;20044;-67
2022/10/21 04:27:13;;;;;;;10.77;3.43;;;;;;;;;;5013148;28;20518;-67
2022/10/21 04:29:38;;;;;;;16.40;4.20;;;;;;;;;;5013206;28;20265;-67
2022/10/21 04:32:04;;;;;;;9.70;2.95;;;;;;;;;;5012150;28;20285;-67
2022/10/21 04:34:29;;;;;;;11.73;3.97;;;;;;;;;;5011800;28;20021;-67
2022/10/21 04:36:54;;;;;;;8.77;3.33;;;;;;;;;;5015290;28;20033;-67
2022/10/21 04:39:19;;;;;;;10.80;4.20;;;;;;;;;;5011476;28;20607;-67
2022/10/21 04:41:44;;;;;;;13.40;3.80;;;;;;;;;;5010121;28;20022;-67
2022/10/21 04:44:10;;;;;;;7.97;3.73;;;;;;;;;;5011361;28;20054;-67
2022/10/21 04:46:35;;;;;;;27.20;5.22;;;;;;;;;;5009648;28;20712;-67
2022/10/21 04:49:00;;;;;;;9.57;4.53;;;;;;;;;;5011762;28;20509;-67
2022/10/21 04:51:25;;;;;;;10.37;4.47;;;;;;;;;;5011990;28;20272;-66
2022/10/21 04:53:50;;;;;;;11.15;4.00;;;;;;;;;;5012010;28;20311;-67
2022/10/21 04:56:16;;;;;;;9.27;4.00;;;;;;;;;;5011390;28;20021;-67
2022/10/21 04:58:41;;;;;;;5.72;1.90;;;;;;;;;;5017156;28;20689;-67
2022/10/21 05:01:06;;;;;;;9.90;4.90;;;;;;;;;;5016215;28;20033;-67
2022/10/21 05:03:31;;;;;;;12.80;3.17;;;;;;;;;;5017040;28;20350;-68
2022/10/21 05:05:56;;;;;;;12.43;3.97;;;;;;;;;;5014266;28;20280;-68
2022/10/21 05:08:22;;;;;;;6.30;3.27;;;;;;;;;;5018746;28;20296;-67
2022/10/21 05:10:47;;;;;;;14.48;4.63;;;;;;;;;;5012795;28;20273;-68
2022/10/21 05:13:12;;;;;;;10.02;4.07;;;;;;;;;;5018789;28;20014;-67
2022/10/21 05:15:38;;;;;;;7.25;2.95;;;;;;;;;;5013260;28;20014;-68
2022/10/21 05:18:03;;;;;;;12.88;3.78;;;;;;;;;;5060996;22;20057;-67
2022/10/21 05:20:28;;;;;;;8.48;3.85;;;;;;;;;;5004565;28;20399;-68
2022/10/21 05:22:53;;;;;;;5.88;3.40;;;;;;;;;;5011824;28;20470;-70
2022/10/21 05:25:19;;;;;;;9.82;4.00;;;;;;;;;;5007064;28;20028;-67
2022/10/21 05:27:44;;;;;;;4.05;2.90;;;;;;;;;;5012470;28;20036;-69
2022/10/21 05:30:10;;;;;;;7.25;3.67;;;;;;;;;;5017315;28;20029;-71
2022/10/21 05:32:35;;;;;;;14.18;3.83;;;;;;;;;;5021602;28;20426;-67
2022/10/21 05:35:00;;;;;;;16.90;3.23;;;;;;;;;;5011825;28;20025;-67
2022/10/21 05:37:25;;;;;;;18.70;4.13;;;;;;;;;;5012965;28;20287;-66
2022/10/21 05:39:51;;;;;;;7.10;3.58;;;;;;;;;;5017658;28;20826;-70
2022/10/21 05:42:16;;;;;;;13.50;3.30;;;;;;;;;;5014279;28;20147;-69
2022/10/21 05:44:41;;;;;;;5.55;3.20;;;;;;;;;;5015466;28;20264;-68
2022/10/21 05:47:06;;;;;;;8.03;3.40;;;;;;;;;;5014626;28;20065;-69
2022/10/21 05:49:31;;;;;;;8.27;3.05;;;;;;;;;;5015478;28;20276;-67
2022/10/21 05:51:56;;;;;;;7.50;2.93;;;;;;;;;;5014627;28;20037;-67
2022/10/21 05:54:22;;;;;;;4.33;1.97;;;;;;;;;;5007601;28;20268;-67
2022/10/21 05:56:47;;;;;;;4.07;3.00;;;;;;;;;;5018960;28;20260;-67
2022/10/21 05:59:12;;;;;;;5.53;3.00;;;;;;;;;;5017609;28;20272;-66
2022/10/21 06:01:38;;;;;;;4.00;2.05;;;;;;;;;;5012956;28;20366;-70
2022/10/21 06:04:03;;;;;;;3.03;1.45;;;;;;;;;;5017512;28;20040;-67
2022/10/21 06:06:28;;;;;;;7.15;2.63;;;;;;;;;;5012715;28;20026;-67
2022/10/21 06:08:54;;;;;;;9.47;2.67;;;;;;;;;;5012405;28;20470;-68
2022/10/21 06:11:19;;;;;;;6.88;2.50;;;;;;;;;;5006587;28;20272;-67
2022/10/21 06:13:45;;;;;;;11.80;2.95;;;;;;;;;;5009149;28;20018;-67
2022/10/21 06:16:10;;;;;;;8.05;3.10;;;;;;;;;;5008627;28;20036;-71
2022/10/21 06:18:35;;;;;;;5.38;2.60;;;;;;;;;;5011027;28;20038;-70
2022/10/21 06:21:01;;;;;;;7.95;3.38;;;;;;;;;;5008630;28;20028;-69
2022/10/21 06:23:26;;;;;;;5.72;2.80;;;;;;;;;;5009639;28;20033;-70
2022/10/21 06:25:58;;;;;;;8.98;2.60;;;;;;;;;;5007610;28;20034;-70
2022/10/21 06:28:23;;;;;;;9.23;3.47;;;;;;;;;;5005382;28;20021;-69
2022/10/21 06:30:49;;;;;;;7.47;3.65;;;;;;;;;;5009665;28;20025;-69
2022/10/21 06:33:14;;;;;;;6.53;2.75;;;;;;;;;;5003397;28;20081;-69
2022/10/21 06:35:39;;;;;;;7.60;3.17;;;;;;;;;;5009966;28;20016;-67
2022/10/21 06:38:04;;;;;;;26.10;3.90;;;;;;;;;;5018327;28;20309;-69
2022/10/21 06:40:29;;;;;;;9.83;3.30;;;;;;;;;;5012822;28;20268;-69
2022/10/21 06:42:55;;;;;;;9.17;2.60;;;;;;;;;;5011068;28;20359;-69
2022/10/21 06:45:20;;;;;;;6.33;2.83;;;;;;;;;;5012416;28;20578;-68
2022/10/21 06:47:45;;;;;;;5.37;2.90;;;;;;;;;;5002358;28;20288;-67
2022/10/21 06:50:12;;;;;;;9.87;3.27;;;;;;;;;;5007027;28;20685;-69
2022/10/21 06:52:37;;;;;;;10.55;4.15;;;;;;;;;;5008412;28;20253;-68
2022/10/21 06:55:03;;;;;;;13.50;3.67;;;;;;;;;;5007061;28;20026;-69
2022/10/21 06:57:28;;;;;;;9.95;3.47;;;;;;;;;;5009098;28;20253;-69
2022/10/21 06:59:53;;;;;;;15.40;3.03;;;;;;;;;;5008385;28;20032;-69
2022/10/21 07:02:18;;;;;;;5.93;2.88;;;;;;;;;;5008832;28;20358;-69
2022/10/21 07:04:44;;;;;;;11.47;3.07;;;;;;;;;;5009560;28;20197;-68
2022/10/21 07:07:10;;;;;;;7.72;2.58;;;;;;;;;;5016599;28;20276;-69
2022/10/21 07:09:36;;;;;;;5.63;2.90;;;;;;;;;;5008119;28;20029;-67
2022/10/21 07:12:01;;;;;;;4.93;2.93;;;;;;;;;;5009446;28;20018;-69
2022/10/21 07:14:26;;;;;;;4.68;2.55;;;;;;;;;;5009216;28;20273;-68
2022/10/21 07:16:52;;;;;;;9.10;3.03;;;;;;;;;;5010843;28;20029;-69
2022/10/21 07:19:18;;;;;;;10.02;2.72;;;;;;;;;;5008595;28;20030;-69
2022/10/21 07:21:43;;;;;;;7.55;2.33;;;;;;;;;;5009175;28;20045;-68
2022/10/21 07:24:08;;;;;;;13.48;3.58;;;;;;;;;;5008964;28;20065;-69
2022/10/21 07:26:34;;;;;;;5.10;2.28;;;;;;;;;;5008845;28;20080;-69
2022/10/21 07:28:59;;;;;;;30.83;3.20;;;;;;;;;;5007869;28;20092;-67
2022/10/21 07:31:25;;;;;;;10.90;3.13;;;;;;;;;;5008322;28;20016;-65
2022/10/21 07:33:50;;;;;;;3.80;1.73;;;;;;;;;;5008149;28;20017;-69
2022/10/21 07:36:22;;;;;;;10.85;2.53;;;;;;;;;;5008085;28;20544;-69
2022/10/21 07:38:48;;;;;;;3.05;1.20;;;;;;;;;;5009126;28;20390;-69
2022/10/21 07:41:24;;;;;;;7.55;1.85;;;;;;;;;;5009090;28;20022;-70
2022/10/21 07:43:49;;;;;;;5.15;1.20;;;;;;;;;;5008510;28;20076;-69
2022/10/21 07:46:15;;;;;;;5.80;2.70;;;;;;;;;;5012056;28;20061;-69
2022/10/21 07:48:40;;;;;;;4.65;1.50;;;;;;;;;;5012569;28;20370;-70
2022/10/21 07:51:07;;;;;;;10.17;2.97;;;;;;;;;;5011121;28;20061;-70
2022/10/21 07:53:33;;;;;;;8.52;2.42;;;;;;;;;;5013673;28;20101;-68
2022/10/21 07:56:06;;;;;;;5.53;2.40;;;;;;;;;;5012613;28;20451;-69
2022/10/21 07:58:31;;;;;;;8.48;2.72;;;;;;;;;;5013913;28;20359;-69
2022/10/21 08:00:57;;;;;;;7.65;2.80;;;;;;;;;;5010848;28;20048;-70
2022/10/21 08:03:22;;;;;;;10.57;2.63;;;;;;;;;;5013267;28;20034;-70
2022/10/21 08:05:48;;;;;;;6.73;2.57;;;;;;;;;;5009353;28;20047;-69
2022/10/21 08:08:13;;;;;;;13.13;3.30;;;;;;;;;;5014476;28;20953;-70
2022/10/21 08:10:39;;;;;;;6.60;2.67;;;;;;;;;;5012193;28;20265;-69
2022/10/21 08:13:04;;;;;;;13.43;2.90;;;;;;;;;;5011379;28;20276;-70
2022/10/21 08:15:29;;;;;;;11.83;3.43;;;;;;;;;;5012725;28;20087;-70
2022/10/21 08:17:54;;;;;;;10.05;2.80;;;;;;;;;;5009899;28;20303;-70
2022/10/21 08:20:21;;;;;;;8.23;2.50;;;;;;;;;;5012159;28;20036;-70
2022/10/21 08:22:46;;;;;;;11.50;3.20;;;;;;;;;;5004223;28;20022;-67
2022/10/21 08:25:15;;;;;;;9.68;3.05;;;;;;;;;;5010128;28;20025;-67
2022/10/21 08:27:40;;;;;;;8.38;2.90;;;;;;;;;;5012835;28;20030;-68
2022/10/21 08:30:05;;;;;;;9.23;3.23;;;;;;;;;;5009984;28;20026;-69
2022/10/21 08:32:31;;;;;;;11.98;3.03;;;;;;;;;;5011297;28;20295;-68
2022/10/21 08:34:56;;;;;;;10.45;3.85;;;;;;;;;;5012836;28;20022;-70
2022/10/21 08:37:21;;;;;;;11.20;3.75;;;;;;;;;;5011703;28;20054;-68
2022/10/21 08:39:46;;;;;;;10.90;3.70;;;;;;;;;;5010366;28;20026;-68
2022/10/21 08:42:14;;;;;;;9.70;3.40;;;;;;;;;;5007346;28;20289;-67
2022/10/21 08:44:48;;;;;;;23.45;3.55;;;;;;;;;;5011908;28;20276;-69
2022/10/21 08:47:13;;;;;;;12.15;3.42;;;;;;;;;;5011135;28;20505;-69
2022/10/21 08:49:38;;;;;;;12.57;3.83;;;;;;;;;;5010725;28;20489;-69
2022/10/21 08:52:06;;;;;;;7.20;2.97;;;;;;;;;;5011487;28;20100;-66
2022/10/21 08:54:40;;;;;;;14.90;4.43;;;;;;;;;;5012289;28;20063;-68
2022/10/21 08:57:07;;;;;;;11.95;3.60;;;;;;;;;;5009828;28;20116;-69
2022/10/21 08:59:32;;;;;;;7.65;3.75;;;;;;;;;;5011292;28;20482;-68
2022/10/21 09:02:16;;;;;;;6.77;3.57;;;;;;;;;;5011658;28;20161;-68
2022/10/21 09:04:50;;;;;;;8.05;3.42;;;;;;;;;;5010265;28;20284;-68
2022/10/21 09:07:24;;;;;;;8.07;3.28;;;;;;;;;;5012750;28;20090;-68
2022/10/21 09:09:55;;;;;;;6.22;3.50;;;;;;;;;;5009514;28;20453;-69
2022/10/21 09:12:23;;;;;;;11.38;4.53;;;;;;;;;;5011618;28;20022;-69
2022/10/21 09:15:05;;;;;;;9.65;3.55;;;;;;;;;;5010186;28;20053;-68
2022/10/21 09:17:45;;;;;;;8.82;4.60;;;;;;;;;;5006492;28;20080;-68
2022/10/21 09:20:26;;;;;;;13.93;3.78;;;;;;;;;;5011306;28;20022;-69
2022/10/21 09:23:04;;;;;;;11.90;3.95;;;;;;;;;;5009182;28;20029;-68
2022/10/21 09:25:32;;;;;;;6.80;3.00;;;;;;;;;;5010244;28;20029;-69
2022/10/21 09:27:58;;;;;;;20.85;4.47;;;;;;;;;;5011568;28;20359;-69
2022/10/21 09:30:23;;;;;;;9.15;3.53;;;;;;;;;;5016488;28;20028;-68
2022/10/21 09:32:50;;;;;;;13.20;4.85;;;;;;;;;;5009441;28;20018;-68
2022/10/21 09:35:36;;;;;;;13.10;2.85;;;;;;;;;;5011976;28;20020;-69
2022/10/21 09:38:20;;;;;;;14.65;4.35;;;;;;;;;;5008094;28;20025;-70
2022/10/21 09:40:47;;;;;;;7.78;2.47;;;;;;;;;;5020443;28;20037;-69
2022/10/21 09:43:23;;;;;;;13.27;3.60;;;;;;;;;;5011865;28;20030;-69
2022/10/21 09:45:49;;;;;;;10.70;4.43;;;;;;;;;;5014553;28;20415;-69
2022/10/21 09:48:14;;;;;;;7.15;3.75;;;;;;;;;;5013658;28;20108;-69
2022/10/21 09:50:39;;;;;;;11.30;3.60;;;;;;;;;;5012100;28;20020;-69
2022/10/21 09:53:15;;;;;;;10.40;3.93;;;;;;;;;;5011309;28;20033;-69
2022/10/21 09:55:41;;;;;;;17.27;4.90;;;;;;;;;;5006490;28;20277;-69
2022/10/21 09:58:21;;;;;;;17.08;3.75;;;;;;;;;;5014414;28;20029;-69
2022/10/21 10:00:48;;;;;;;11.77;4.35;;;;;;;;;;5009829;28;20030;-70
2022/10/21 10:03:32;;;;;;;11.77;4.30;;;;;;;;;;5010839;28;20037;-68
2022/10/21 10:05:57;;;;;;;14.88;4.53;;;;;;;;;;5005184;28;20022;-69
2022/10/21 10:08:34;;;;;;;17.23;4.50;;;;;;;;;;5013515;28;20029;-69
2022/10/21 10:11:02;;;;;;;13.32;6.57;;;;;;;;;;5013763;28;20049;-69
2022/10/21 10:13:29;;;;;;;15.35;7.60;;;;;;;;;;5006103;28;20103;-69
2022/10/21 10:15:55;;;;;;;20.58;5.97;;;;;;;;;;5009693;28;20018;-69
2022/10/21 10:18:21;;;;;;;15.07;5.65;;;;;;;;;;5010098;28;20048;-68
2022/10/21 10:20:46;;;;;;;12.30;5.30;;;;;;;;;;5010343;28;20026;-69
2022/10/21 10:23:17;;;;;;;13.68;5.65;;;;;;;;;;5008744;28;20509;-69
2022/10/21 10:25:47;;;;;;;13.57;5.80;;;;;;;;;;5009782;28;20509;-69
2022/10/21 10:28:12;;;;;;;19.17;6.60;;;;;;;;;;5011090;28;20034;-69
2022/10/21 10:30:40;;;;;;;15.43;6.00;;;;;;;;;;5009786;28;20026;-69
2022/10/21 10:33:07;;;;;;;13.30;4.97;;;;;;;;;;5010373;28;20105;-69
2022/10/21 10:35:34;;;;;;;17.45;5.53;;;;;;;;;;5009351;28;20068;-69
2022/10/21 10:38:01;;;;;;;14.50;3.85;;;;;;;;;;5010061;28;20018;-69
2022/10/21 10:40:40;;;;;;;12.48;5.32;;;;;;;;;;5009817;28;20029;-69
2022/10/21 10:43:11;;;;;;;13.77;4.13;;;;;;;;;;5013113;28;20025;-69
2022/10/21 10:45:36;;;;;;;13.35;4.40;;;;;;;;;;5009782;28;20049;-69
2022/10/21 10:48:03;;;;;;;11.53;4.17;;;;;;;;;;5009944;28;20471;-69
2022/10/21 10:50:47;;;;;;;10.25;3.85;;;;;;;;;;5007201;28;20811;-67
2022/10/21 10:53:22;;;;;;;10.15;4.35;;;;;;;;;;5005356;28;20029;-69
2022/10/21 10:55:50;;;;;;;9.70;4.05;;;;;;;;;;5002235;28;20164;-70
2022/10/21 10:58:16;;;;;;;13.73;4.85;;;;;;;;;;5010085;28;20505;-69
2022/10/21 11:00:43;;;;;;;7.90;4.15;;;;;;;;;;5008694;28;20026;-69
2022/10/21 11:03:15;;;;;;;13.27;4.38;;;;;;;;;;5010010;28;20096;-70
2022/10/21 11:05:45;;;;;;;13.05;4.22;;;;;;;;;;5007067;28;20389;-69
2022/10/21 11:08:14;;;;;;;15.35;4.30;;;;;;;;;;5007367;28;20037;-70
2022/10/21 11:10:45;;;;;;;9.40;3.63;;;;;;;;;;5008530;28;20034;-69
2022/10/21 11:13:20;;;;;;;18.08;4.30;;;;;;;;;;5006994;28;20029;-68
2022/10/21 11:15:56;;;;;;;9.88;3.97;;;;;;;;;;5009183;28;20022;-70
2022/10/21 11:18:30;;;;;;;22.17;4.55;;;;;;;;;;5009479;28;20112;-68
2022/10/21 11:21:04;;;;;;;9.95;3.67;;;;;;;;;;5009644;28;20053;-69
2022/10/21 11:23:29;;;;;;;8.38;3.92;;;;;;;;;;5009382;28;20144;-68
2022/10/21 11:25:57;;;;;;;10.43;4.57;;;;;;;;;;5006391;28;20101;-70
2022/10/21 11:28:36;;;;;;;4.88;2.70;;;;;;;;;;5009748;28;20034;-69
2022/10/21 11:31:24;;;;;;;14.65;5.35;;;;;;;;;;5007283;28;20018;-70
2022/10/21 11:34:09;;;;;;;12.43;4.20;;;;;;;;;;5009359;28;20405;-68
2022/10/21 11:36:39;;;;;;;10.52;3.60;;;;;;;;;;5007542;28;20067;-70
2022/10/21 11:39:20;;;;;;;5.40;2.42;;;;;;;;;;5013887;28;20038;-69
2022/10/21 11:41:53;;;;;;;11.27;4.55;;;;;;;;;;5009841;28;20052;-68
2022/10/21 11:44:21;;;;;;;7.00;3.72;;;;;;;;;;5010857;28;20029;-69
2022/10/21 11:46:50;;;;;;;13.60;3.55;;;;;;;;;;5001916;28;20026;-69
2022/10/21 11:49:21;;;;;;;11.30;4.20;;;;;;;;;;5010100;28;20022;-69
2022/10/21 11:51:49;;;;;;;12.10;3.67;;;;;;;;;;5005418;28;20021;-70
2022/10/21 11:54:33;;;;;;;10.60;4.53;;;;;;;;;;5008978;28;20383;-68
2022/10/21 11:57:04;;;;;;;10.95;3.92;;;;;;;;;;5002388;28;20025;-69
2022/10/21 11:59:29;;;;;;;9.63;3.58;;;;;;;;;;5007237;28;20128;-69
2022/10/21 12:02:13;;;;;;;11.88;4.28;;;;;;;;;;5006949;28;20026;-69
2022/10/21 12:04:43;;;;;;;10.68;4.78;;;;;;;;;;5008369;28;20040;-69
2022/10/21 12:07:16;;;;;;;15.05;5.28;;;;;;;;;;5011176;28;20428;-69
2022/10/21 12:10:07;;;;;;;5.85;2.72;;;;;;;;;;5008964;28;20014;-69
2022/10/21 12:12:36;;;;;;;9.77;2.13;;;;;;;;;;4986575;28;20057;-66
2022/10/21 12:15:03;;;;;;;5.70;2.72;;;;;;;;;;5009939;28;20013;-69
2022/10/21 12:17:30;;;;;;;10.77;3.08;;;;;;;;;;5012222;28;20128;-69
2022/10/21 12:19:57;;;;;;;2.88;1.48;;;;;;;;;;5009743;28;20053;-69
2022/10/21 12:22:27;;;;;;;12.32;3.10;;;;;;;;;;5012414;28;20056;-70
2022/10/21 12:24:52;;;;;;;;;;;;;;;;;;5009533;28;20394;-68
2022/10/21 12:27:23;;;;;;;2.85;1.83;;;;;;;;;;5012172;28;19917;-69
2022/10/21 12:30:12;;;;;;;4.75;2.17;;;;;;;;;;5011260;28;20426;-69
2022/10/21 12:32:56;;;;;;;4.70;1.50;;;;;;;;;;5008713;28;20538;-69
2022/10/21 12:35:25;;;;;;;3.00;1.20;;;;;;;;;;5010883;28;20020;-68
2022/10/21 12:37:51;;;;;;;13.73;1.83;;;;;;;;;;5012808;28;20018;-69
2022/10/21 12:40:32;;;;;;;4.78;1.60;;;;;;;;;;5011494;28;20036;-69
2022/10/21 12:42:58;;;;;;;4.50;1.23;;;;;;;;;;5009480;28;20026;-69
2022/10/21 12:45:25;;;;;;;3.53;1.25;;;;;;;;;;5010435;28;20061;-69
2022/10/21 12:47:51;;;;;;;4.50;0.95;;;;;;;;;;5011790;28;20026;-67
2022/10/21 12:50:20;;;;;;;4.35;1.70;;;;;;;;;;5013140;28;20076;-68
2022/10/21 12:52:54;;;;;;;2.25;1.13;;;;;;;;;;5003724;28;20084;-67
2022/10/21 12:55:22;;;;;;;8.93;1.45;;;;;;;;;;5010448;28;20034;-69
2022/10/21 12:57:55;;;;;;;4.85;1.80;;;;;;;;;;5006556;28;20026;-69
2022/10/21 13:00:26;;;;;;;10.52;1.25;;;;;;;;;;5011324;28;20079;-68
2022/10/21 13:03:02;;;;;;;4.68;1.80;;;;;;;;;;5010919;28;20386;-67
2022/10/21 13:05:36;;;;;;;4.07;1.15;;;;;;;;;;5012467;28;20466;-67
2022/10/21 13:08:23;;;;;;;10.20;1.10;;;;;;;;;;5010678;28;20029;-67
2022/10/21 13:11:06;;;;;;;2.45;1.13;;;;;;;;;;5012325;28;20014;-66
2022/10/21 13:13:41;;;;;;;2.33;1.08;;;;;;;;;;5012389;28;20131;-66
2022/10/21 13:16:18;;;;;;;4.47;1.42;;;;;;;;;;5011008;28;20458;-68
2022/10/21 13:18:50;;;;;;;4.60;1.08;;;;;;;;;;5009179;28;20478;-67
2022/10/21 13:21:28;;;;;;;2.65;1.17;;;;;;;;;;5004312;28;20149;-67
2022/10/21 13:23:55;;;;;;;7.43;1.02;;;;;;;;;;5010109;28;20017;-69
2022/10/21 13:26:23;;;;;;;8.75;1.40;;;;;;;;;;5012779;28;20014;-69
2022/10/21 13:29:06;;;;;;;6.80;1.10;;;;;;;;;;5011815;28;20030;-69
2022/10/21 13:31:32;;;;;;;3.03;1.50;;;;;;;;;;5004676;28;20029;-70
2022/10/21 13:33:57;;;;;;;7.72;1.00;;;;;;;;;;5011283;28;20029;-68
2022/10/21 13:36:33;;;;;;;8.18;1.08;;;;;;;;;;5011213;28;20037;-70
2022/10/21 13:39:00;;;;;;;2.20;0.90;;;;;;;;;;5012098;28;20084;-69
2022/10/21 13:41:26;;;;;;;1.00;0.75;;;;;;;;;;5007355;28;20084;-68
2022/10/21 13:43:53;;;;;;;4.22;1.10;;;;;;;;;;5010798;28;20045;-69
2022/10/21 13:46:22;;;;;;;5.20;1.20;;;;;;;;;;5011272;28;20062;-69
2022/10/21 13:48:47;;;;;;;3.05;0.55;;;;;;;;;;5010757;28;20504;-69
2022/10/21 13:51:16;;;;;;;1.10;0.50;;;;;;;;;;5011492;28;20021;-69
2022/10/21 13:53:44;;;;;;;3.85;0.85;;;;;;;;;;5007657;28;20022;-69
2022/10/21 13:56:17;;;;;;;1.98;0.60;;;;;;;;;;5010815;28;20034;-68
2022/10/21 13:58:42;;;;;;;3.40;2.03;;;;;;;;;;5009535;28;20021;-67
2022/10/21 14:01:12;;;;;;;2.20;0.90;;;;;;;;;;5011387;28;20528;-67
2022/10/21 14:03:38;;;;;;;7.82;1.40;;;;;;;;;;5016559;28;20352;-69
2022/10/21 14:06:04;;;;;;;3.20;1.35;;;;;;;;;;5012237;28;20129;-69
2022/10/21 14:08:30;;;;;;;3.28;1.38;;;;;;;;;;5007074;28;20014;-70
2022/10/21 14:11:00;;;;;;;5.47;0.90;;;;;;;;;;5010854;28;20041;-69
2022/10/21 14:13:27;;;;;;;4.70;1.20;;;;;;;;;;5017437;28;20116;-68
2022/10/21 14:15:53;;;;;;;5.25;0.90;;;;;;;;;;5010631;28;20244;-68
2022/10/21 14:18:37;;;;;;;6.47;1.88;;;;;;;;;;5011019;28;20029;-66
2022/10/21 14:21:03;;;;;;;5.55;1.23;;;;;;;;;;5008745;28;20091;-68
2022/10/21 14:23:28;;;;;;;3.15;0.82;;;;;;;;;;5010122;28;20577;-67
2022/10/21 14:25:56;;;;;;;5.30;1.20;;;;;;;;;;5010214;28;20018;-69
2022/10/21 14:28:21;;;;;;;6.43;1.10;;;;;;;;;;5011074;28;20455;-68
2022/10/21 14:30:47;;;;;;;8.40;0.93;;;;;;;;;;5009955;28;20030;-67
2022/10/21 14:33:14;;;;;;;1.50;0.70;;;;;;;;;;5015565;28;20093;-69
2022/10/21 14:35:40;;;;;;;2.28;0.90;;;;;;;;;;5010564;28;20382;-70
2022/10/21 14:38:25;;;;;;;5.90;0.93;;;;;;;;;;5011031;28;20116;-69
2022/10/21 14:41:04;;;;;;;6.68;0.80;;;;;;;;;;5005711;28;20024;-70